createdAt,value
2022-08-07T07:54:51.154Z,85.20
2022-08-07T07:57:21.575Z,85.40
2022-08-07T08:00:09.297Z,79.70
2022-08-07T08:03:01.052Z,76.10
2022-08-07T08:05:42.776Z,70.40
2022-08-07T08:08:34.940Z,69.80
2022-08-07T08:10:58.141Z,69.50
2022-08-07T08:13:26.517Z,66.30
2022-08-07T08:16:05.647Z,65.70
2022-08-07T08:18:33.573Z,67.60
2022-08-07T08:21:03.477Z,67.60
2022-08-07T08:23:50.085Z,66.30
2022-08-07T08:26:37.146Z,65.80
2022-08-07T08:29:05.052Z,68.50
2022-08-07T08:32:10.119Z,69.90
2022-08-07T08:34:31.947Z,69.60
2022-08-07T08:37:00.135Z,67.70
2022-08-07T08:39:38.895Z,67.10
2022-08-07T08:42:27.436Z,68.10
2022-08-07T08:45:13.487Z,68.10
2022-08-07T08:48:04.309Z,70.20
2022-08-07T08:50:39.532Z,72.30
2022-08-07T08:53:07.417Z,73.50
2022-08-07T08:55:53.267Z,73.20
2022-08-07T08:58:28.775Z,71.30
2022-08-07T09:01:29.862Z,68.90
2022-08-07T09:04:25.908Z,68.40
2022-08-07T09:07:28.575Z,64.30
2022-08-07T09:10:19.744Z,62.00
2022-08-07T09:12:53.668Z,60.40
2022-08-07T09:16:25.606Z,58.70
2022-08-07T09:18:36.885Z,58.10
2022-08-07T09:50:02.459Z,56.30
2022-08-07T09:52:34.141Z,56.90
2022-08-07T09:55:02.347Z,57.70
2022-08-07T09:57:46.721Z,59.00
2022-08-07T10:02:57.322Z,57.00
2022-08-07T10:06:01.325Z,55.40
2022-08-07T10:08:44.379Z,54.70
2022-08-07T10:12:00.099Z,55.70
2022-08-07T10:14:30.374Z,56.00
2022-08-07T10:22:15.037Z,48.50
2022-08-07T10:24:46.499Z,47.80
2022-08-07T10:27:17.751Z,47.30
2022-08-07T10:30:05.015Z,46.10
2022-08-07T10:32:53.034Z,46.50
2022-08-07T10:36:10.901Z,48.60
2022-08-07T10:38:49.169Z,50.80
2022-08-07T10:41:46.445Z,53.10
2022-08-07T10:44:07.819Z,55.20
2022-08-07T10:46:51.461Z,57.10
2022-08-07T10:49:49.031Z,58.50
2022-08-07T10:52:51.260Z,59.80
2022-08-07T10:55:37.246Z,61.00
2022-08-07T10:58:12.803Z,61.70
2022-08-07T11:00:50.461Z,62.10
2022-08-07T11:03:51.252Z,61.40
2022-08-07T11:06:23.041Z,60.70
2022-08-07T11:09:03.074Z,59.70
2022-08-07T11:11:37.550Z,56.80
2022-08-07T11:17:13.004Z,54.20
2022-08-07T11:19:53.021Z,55.20
2022-08-07T11:22:45.869Z,56.00
2022-08-07T11:25:14.834Z,54.70
2022-08-07T11:28:01.859Z,52.60
2022-08-07T11:30:55.979Z,51.30
2022-08-07T11:46:20.232Z,46.20
2022-08-07T11:49:51.318Z,46.90
2022-08-07T11:51:58.709Z,48.60
2022-08-07T11:54:26.317Z,50.30
2022-08-07T11:56:56.431Z,51.60
2022-08-07T12:00:10.407Z,52.60
2022-08-07T12:02:30.207Z,53.90
2022-08-07T12:07:39.231Z,55.50
2022-08-07T12:10:08.631Z,56.00
2022-08-07T12:12:44.306Z,54.90
2022-08-07T12:15:35.747Z,52.20
2022-08-07T12:18:12.900Z,51.40
2022-08-07T12:20:43.208Z,49.90
2022-08-07T12:23:10.567Z,48.70
2022-08-07T12:26:23.461Z,49.60
2022-08-07T12:28:56.233Z,50.60
2022-08-07T12:31:53.369Z,51.70
2022-08-07T12:34:23.150Z,52.80
2022-08-07T12:36:54.681Z,54.20
2022-08-07T12:39:43.905Z,55.60
2022-08-07T12:42:13.159Z,56.50
2022-08-07T12:44:45.140Z,57.30
2022-08-07T12:47:26.876Z,58.10
2022-08-07T12:50:34.201Z,58.60
2022-08-07T12:52:59.477Z,59.40
2022-08-07T12:55:41.414Z,60.20
2022-08-07T12:58:16.792Z,60.50
2022-08-07T13:01:02.533Z,61.30
2022-08-07T13:03:54.954Z,61.60
2022-08-07T13:06:31.206Z,62.30
2022-08-07T13:10:20.905Z,62.70
2022-08-07T13:12:44.013Z,63.40
2022-08-07T13:15:33.421Z,63.20
2022-08-07T13:18:03.487Z,62.90
2022-08-07T13:20:36.316Z,62.10
2022-08-07T13:23:59.726Z,61.70
2022-08-07T13:26:07.808Z,60.60
2022-08-07T13:29:09.055Z,60.20
2022-08-07T13:31:54.941Z,59.80
2022-08-07T13:34:37.655Z,60.70
2022-08-07T13:37:10.704Z,61.70
2022-08-07T13:40:34.846Z,61.70
2022-08-07T13:42:52.543Z,62.00
2022-08-07T13:46:20.770Z,61.20
2022-08-07T13:48:10.508Z,62.00
2022-08-07T13:51:01.399Z,62.00
2022-08-07T13:53:59.390Z,63.10
2022-08-07T13:56:35.419Z,63.40
2022-08-07T13:59:17.530Z,64.50
2022-08-07T14:02:07.815Z,64.60
2022-08-07T14:04:48.975Z,65.30
2022-08-07T14:07:18.616Z,65.70
2022-08-07T14:10:02.546Z,65.40
2022-08-07T14:12:54.023Z,65.00
2022-08-07T14:15:42.621Z,65.50
2022-08-07T14:18:29.100Z,66.00
2022-08-07T14:22:01.245Z,66.10
2022-08-07T14:24:06.682Z,65.70
2022-08-07T14:26:37.466Z,65.80
2022-08-07T14:31:59.748Z,66.80
2022-08-07T14:34:30.102Z,66.70
2022-08-07T14:37:03.249Z,66.70
2022-08-07T14:40:17.846Z,65.40
2022-08-07T14:42:32.316Z,64.50
2022-08-07T14:45:21.244Z,64.10
2022-08-07T14:47:53.022Z,64.50
2022-08-07T14:50:28.049Z,63.80
2022-08-07T14:52:56.424Z,64.10
2022-08-07T14:55:38.316Z,64.00
2022-08-07T14:58:25.080Z,64.50
2022-08-07T15:00:54.612Z,65.00
2022-08-07T15:03:23.544Z,65.40
2022-08-07T15:06:12.156Z,65.70
2022-08-07T15:08:50.395Z,66.10
2022-08-07T15:13:11.962Z,66.90
2022-08-07T15:14:16.495Z,67.70
2022-08-07T15:16:54.479Z,68.30
2022-08-07T15:22:23.107Z,69.50
2022-08-07T15:25:14.274Z,70.00
2022-08-07T15:28:31.056Z,70.00
2022-08-07T15:30:36.613Z,70.40
2022-08-07T15:33:33.853Z,71.10
2022-08-07T15:36:06.293Z,71.90
2022-08-07T15:38:51.878Z,72.60
2022-08-07T15:42:46.080Z,72.80
2022-08-07T15:44:15.325Z,72.80
2022-08-07T15:46:52.039Z,73.00
2022-08-07T15:49:25.257Z,73.40
2022-08-07T15:54:34.098Z,74.70
2022-08-07T15:57:02.868Z,75.30
2022-08-07T15:59:39.314Z,76.60
2022-08-07T16:02:15.024Z,78.10
2022-08-07T16:04:44.009Z,79.30
2022-08-07T16:08:28.473Z,80.80
2022-08-07T16:10:22.696Z,81.90
2022-08-07T16:13:01.213Z,85.00
2022-08-07T16:18:50.077Z,90.40
2022-08-07T16:22:02.317Z,90.80
2022-08-07T16:24:52.701Z,90.80
2022-08-07T16:27:26.551Z,91.40
2022-08-07T16:30:29.430Z,91.60
2022-08-07T16:32:59.863Z,92.00
2022-08-07T16:35:58.510Z,92.60
2022-08-07T16:38:59.867Z,93.20
2022-08-07T16:41:18.856Z,93.40
2022-08-07T16:44:04.128Z,93.30
2022-08-07T16:47:06.769Z,93.20
2022-08-07T16:50:26.671Z,93.00
2022-08-07T16:52:55.825Z,93.20
2022-08-07T16:55:43.630Z,93.60
2022-08-07T16:58:17.954Z,93.70
2022-08-07T17:00:55.519Z,93.60
2022-08-07T17:04:00.035Z,93.40
2022-08-07T17:07:02.789Z,93.40
2022-08-07T17:10:05.981Z,93.20
2022-08-07T17:12:44.383Z,93.30
2022-08-07T17:15:15.499Z,93.30
2022-08-07T17:17:49.171Z,93.50
2022-08-07T17:20:23.028Z,93.50
2022-08-07T17:23:02.695Z,93.70
2022-08-07T17:25:55.916Z,94.30
2022-08-07T17:28:31.519Z,94.10
2022-08-07T17:31:16.637Z,94.20
2022-08-07T17:34:18.212Z,94.40
2022-08-07T17:36:58.387Z,94.20
2022-08-07T17:39:53.207Z,94.20
2022-08-07T17:42:59.517Z,94.20
2022-08-07T17:45:40.036Z,94.50
2022-08-07T17:50:46.998Z,94.60
2022-08-07T17:54:00.853Z,94.90
2022-08-07T17:58:53.099Z,95.00
2022-08-07T18:01:48.599Z,95.20
2022-08-07T18:04:30.751Z,95.40
2022-08-07T18:07:20.831Z,95.40
2022-08-07T18:10:06.014Z,95.50
2022-08-07T18:12:35.003Z,95.90
2022-08-07T18:18:45.626Z,95.90
2022-08-07T18:21:11.945Z,96.30
2022-08-07T18:23:21.846Z,96.40
2022-08-07T18:26:14.748Z,96.50
2022-08-07T18:29:02.827Z,96.50
2022-08-07T18:31:40.645Z,96.50
2022-08-07T18:34:37.854Z,96.60
2022-08-07T18:38:57.382Z,96.50
2022-08-07T18:40:42.874Z,96.60
2022-08-07T18:43:43.397Z,96.50
2022-08-07T18:46:33.787Z,96.60
2022-08-07T18:50:33.097Z,96.60
2022-08-07T18:52:52.657Z,96.70
2022-08-07T18:55:43.047Z,96.80
2022-08-07T18:58:15.219Z,96.70
2022-08-07T19:01:08.579Z,96.80
2022-08-07T19:04:03.846Z,96.60
2022-08-07T19:06:48.184Z,96.30
2022-08-07T19:09:57.037Z,96.40
2022-08-07T19:12:34.352Z,96.60
2022-08-07T19:16:03.305Z,96.00
2022-08-07T19:18:03.695Z,95.40
2022-08-07T19:21:09.384Z,94.50
2022-08-07T19:26:29.114Z,92.90
2022-08-07T19:31:05.189Z,93.40
2022-08-07T19:32:08.133Z,93.20
2022-08-07T19:34:38.578Z,92.70
2022-08-07T19:37:17.794Z,92.50
2022-08-07T19:39:57.801Z,92.40
2022-08-07T19:42:30.743Z,92.50
2022-08-07T19:45:00.577Z,92.40
2022-08-07T19:47:36.593Z,92.40
2022-08-07T19:50:40.809Z,92.30
2022-08-07T19:52:58.687Z,92.10
2022-08-07T19:55:57.397Z,92.20
2022-08-07T19:58:16.309Z,92.30
2022-08-07T20:00:54.282Z,92.10
2022-08-07T20:06:04.481Z,91.30
2022-08-07T20:08:34.183Z,91.40
2022-08-07T20:11:10.627Z,91.60
2022-08-07T20:13:46.696Z,91.60
2022-08-07T20:19:00.300Z,91.30
2022-08-07T20:21:42.022Z,91.60
2022-08-07T20:24:18.420Z,91.70
2022-08-07T20:26:50.282Z,91.50
2022-08-07T20:29:48.431Z,91.70
2022-08-07T20:32:11.411Z,91.80
2022-08-07T20:34:51.640Z,91.90
2022-08-07T20:37:23.655Z,91.70
2022-08-07T20:40:04.034Z,91.90
2022-08-07T20:42:33.602Z,91.80
2022-08-07T20:45:01.364Z,91.90
2022-08-07T20:47:57.027Z,91.90
2022-08-07T20:50:20.235Z,92.10
2022-08-07T20:52:51.369Z,92.10
2022-08-07T20:55:23.722Z,92.20
2022-08-07T20:58:03.424Z,92.30
2022-08-07T21:00:42.144Z,92.20
2022-08-07T21:03:12.010Z,92.30
2022-08-07T21:05:55.871Z,92.20
2022-08-07T21:08:44.216Z,92.40
2022-08-07T21:11:17.062Z,92.40
2022-08-07T21:14:16.868Z,92.60
2022-08-07T21:17:06.430Z,92.60
2022-08-07T21:19:51.260Z,92.70
2022-08-07T21:22:28.370Z,92.70
2022-08-07T21:25:12.227Z,92.80
2022-08-07T21:27:47.441Z,92.90
2022-08-07T21:30:19.846Z,93.00
2022-08-07T21:33:05.786Z,93.00
2022-08-07T21:36:04.979Z,93.10
2022-08-07T21:38:44.387Z,93.10
2022-08-07T21:41:24.460Z,93.30
2022-08-07T21:44:07.111Z,93.20
2022-08-07T21:49:25.731Z,93.20
2022-08-07T21:51:56.906Z,93.60
2022-08-07T21:54:30.071Z,93.70
2022-08-07T21:57:30.877Z,93.80
2022-08-07T22:00:04.897Z,93.80
2022-08-07T22:02:53.251Z,93.80
2022-08-07T22:05:44.264Z,94.00
2022-08-07T22:08:12.416Z,94.00
2022-08-07T22:10:42.501Z,94.10
2022-08-07T22:13:13.753Z,94.20
2022-08-07T22:16:38.451Z,94.20
2022-08-07T22:19:03.532Z,94.30
2022-08-07T22:22:02.042Z,94.30
2022-08-07T22:24:40.365Z,94.20
2022-08-07T22:27:16.123Z,94.30
2022-08-07T22:29:48.447Z,94.30
2022-08-07T22:32:20.415Z,94.50
2022-08-07T22:34:53.070Z,94.60
2022-08-07T22:38:02.714Z,94.90
2022-08-07T22:40:38.637Z,95.10
2022-08-07T22:43:14.473Z,95.20
2022-08-07T22:46:21.140Z,95.30
2022-08-07T22:48:55.999Z,95.40
2022-08-07T22:51:37.404Z,95.40
2022-08-07T22:54:19.332Z,95.60
2022-08-07T22:57:08.300Z,95.80
2022-08-07T22:59:37.302Z,96.00
2022-08-07T23:02:28.013Z,96.30
2022-08-07T23:04:58.531Z,96.40
2022-08-07T23:07:45.342Z,96.60
2022-08-07T23:10:37.600Z,96.70
2022-08-07T23:16:05.824Z,96.60
2022-08-07T23:18:32.052Z,97.00
2022-08-07T23:21:06.448Z,97.10
2022-08-07T23:24:06.005Z,97.30
2022-08-07T23:26:50.372Z,97.30
2022-08-07T23:29:43.597Z,97.00
